createdAt,value
2018-04-28T00:01:48.751Z,3.37
2018-04-28T00:04:16.862Z,3.42
2018-04-28T00:06:45.805Z,3.35
2018-04-28T00:09:13.925Z,3.03
2018-04-28T00:11:42.820Z,3.60
2018-04-28T00:14:10.941Z,3.20
2018-04-28T00:16:50.984Z,3.58
2018-04-28T00:19:26.206Z,3.33
2018-04-28T00:21:58.471Z,3.78
2018-04-28T00:24:30.131Z,3.65
2018-04-28T00:27:08.211Z,3.25
2018-04-28T00:29:36.321Z,3.37
2018-04-28T00:32:06.305Z,3.33
2018-04-28T00:34:50.938Z,3.00
2018-04-28T00:37:20.472Z,3.20
2018-04-28T00:39:56.008Z,3.28
2018-04-28T00:42:32.367Z,3.12
2018-04-28T00:45:01.205Z,3.55
2018-04-28T00:47:29.323Z,2.95
2018-04-28T00:50:03.818Z,3.33
2018-04-28T00:52:32.003Z,3.20
2018-04-28T00:55:03.505Z,3.08
2018-04-28T01:01:16.558Z,2.87
2018-04-28T01:04:00.231Z,2.83
2018-04-28T01:06:28.398Z,3.03
2018-04-28T01:08:58.366Z,3.17
2018-04-28T01:11:39.020Z,2.78
2018-04-28T01:17:22.991Z,2.72
2018-04-28T01:20:05.431Z,3.15
2018-04-28T01:22:36.461Z,2.80
2018-04-28T01:25:07.147Z,3.00
2018-04-28T01:27:43.543Z,2.60
2018-04-28T01:30:40.314Z,3.00
2018-04-28T01:36:57.251Z,2.90
2018-04-28T01:39:39.653Z,2.85
2018-04-28T01:42:16.879Z,2.42
2018-04-28T01:47:58.859Z,2.67
2018-04-28T01:57:21.142Z,2.70
2018-04-28T02:00:05.824Z,2.80
2018-04-28T02:02:49.614Z,2.55
2018-04-28T02:08:17.798Z,2.50
2018-04-28T02:10:59.627Z,2.10
2018-04-28T02:16:34.606Z,2.42
2018-04-28T02:22:19.570Z,2.53
2018-04-28T02:28:25.917Z,2.20
2018-04-28T02:31:13.615Z,2.25
2018-04-28T02:33:51.289Z,2.33
2018-04-28T02:36:26.345Z,2.30
2018-04-28T02:38:58.416Z,2.15
2018-04-28T02:41:45.960Z,2.20
2018-04-28T02:47:41.286Z,2.30
2018-04-28T02:50:21.134Z,2.50
2018-04-28T02:56:03.243Z,2.30
2018-04-28T02:58:47.275Z,2.17
2018-04-28T03:01:20.002Z,1.90
2018-04-28T03:04:00.262Z,2.15
2018-04-28T03:09:31.759Z,2.40
2018-04-28T03:12:04.501Z,2.17
2018-04-28T03:14:33.258Z,2.07
2018-04-28T03:17:14.230Z,2.30
2018-04-28T03:19:43.902Z,2.03
2018-04-28T03:22:19.551Z,2.10
2018-04-28T03:24:55.596Z,2.35
2018-04-28T03:27:53.440Z,2.10
2018-04-28T03:30:33.465Z,2.15
2018-04-28T03:33:16.929Z,2.37
2018-04-28T03:35:46.866Z,2.30
2018-04-28T03:38:21.381Z,2.10
2018-04-28T03:40:54.682Z,2.10
2018-04-28T03:43:40.531Z,2.10
2018-04-28T03:46:14.413Z,2.40
2018-04-28T03:48:44.881Z,2.00
2018-04-28T03:51:42.529Z,2.60
2018-04-28T03:54:12.181Z,2.20
2018-04-28T03:56:42.903Z,2.50
2018-04-28T03:59:29.029Z,2.17
2018-04-28T04:02:16.033Z,2.43
2018-04-28T04:04:46.826Z,2.30
2018-04-28T04:07:39.367Z,2.67
2018-04-28T04:13:33.651Z,1.60
2018-04-28T04:19:23.385Z,2.60
2018-04-28T04:21:58.312Z,2.37
2018-04-28T04:27:32.385Z,2.33
2018-04-28T04:30:18.528Z,1.80
2018-04-28T04:32:54.098Z,3.20
2018-04-28T04:35:44.089Z,2.40
2018-04-28T04:38:16.752Z,2.23
2018-04-28T04:40:54.471Z,2.00
2018-04-28T04:43:24.286Z,2.20
2018-04-28T04:49:22.669Z,2.60
2018-04-28T04:52:08.423Z,2.20
2018-04-28T04:54:57.014Z,2.62
2018-04-28T04:57:33.933Z,2.63
2018-04-28T05:03:19.734Z,2.87
2018-04-28T05:12:44.877Z,2.90
2018-04-28T05:15:29.775Z,2.70
2018-04-28T05:18:11.673Z,2.75
2018-04-28T05:20:50.424Z,2.53
2018-04-28T05:23:25.129Z,2.85
2018-04-28T05:26:02.918Z,3.20
2018-04-28T05:28:39.929Z,2.73
2018-04-28T05:31:16.905Z,2.33
2018-04-28T05:40:27.610Z,2.05
2018-04-28T05:46:25.720Z,2.53
2018-04-28T05:52:35.138Z,2.20
2018-04-28T06:01:55.850Z,1.90
2018-04-28T06:04:55.701Z,2.25
2018-04-28T06:10:44.487Z,2.42
2018-04-28T06:16:51.351Z,1.77
2018-04-28T06:22:25.277Z,2.00
2018-04-28T06:24:53.401Z,1.90
2018-04-28T06:27:21.539Z,2.20
2018-04-28T06:29:49.638Z,1.87
2018-04-28T06:32:17.770Z,2.22
2018-04-28T06:34:46.683Z,2.15
2018-04-28T06:37:14.797Z,2.28
2018-04-28T06:39:42.906Z,2.00
2018-04-28T06:42:11.023Z,2.03
2018-04-28T06:44:39.180Z,1.83
2018-04-28T06:47:08.055Z,1.92
2018-04-28T06:49:36.188Z,2.03
2018-04-28T06:52:04.298Z,1.95
2018-04-28T06:54:32.532Z,1.85
2018-04-28T06:57:00.659Z,1.90
2018-04-28T06:59:28.787Z,1.70
2018-04-28T07:01:56.914Z,1.50
2018-04-28T07:04:25.023Z,1.55
2018-04-28T07:06:53.900Z,1.90
2018-04-28T07:09:22.010Z,1.85
2018-04-28T07:11:50.127Z,1.80
2018-04-28T07:14:18.222Z,1.33
2018-04-28T07:16:46.378Z,1.65
2018-04-28T07:19:15.265Z,1.35
2018-04-28T07:21:43.397Z,1.50
2018-04-28T07:24:12.409Z,1.77
2018-04-28T07:26:40.593Z,1.75
2018-04-28T07:29:08.710Z,1.98
2018-04-28T07:31:36.808Z,1.52
2018-04-28T07:34:04.929Z,1.55
2018-04-28T07:36:33.042Z,1.80
2018-04-28T07:39:01.157Z,1.50
2018-04-28T07:41:30.041Z,1.42
2018-04-28T07:43:58.922Z,1.60
2018-04-28T07:46:27.045Z,1.60
2018-04-28T07:48:55.249Z,1.58
2018-04-28T07:51:23.365Z,1.25
2018-04-28T07:53:51.516Z,1.30
2018-04-28T07:56:19.648Z,1.70
2018-04-28T07:58:47.770Z,2.47
2018-04-28T08:01:15.896Z,1.50
2018-04-28T08:03:44.760Z,2.12
2018-04-28T08:06:12.903Z,1.83
2018-04-28T08:08:41.017Z,1.42
2018-04-28T08:11:09.152Z,1.48
2018-04-28T08:13:37.256Z,1.40
2018-04-28T08:16:05.396Z,2.50
2018-04-28T08:18:33.537Z,1.60
2018-04-28T08:21:02.423Z,2.00
2018-04-28T08:23:31.328Z,1.58
2018-04-28T08:26:00.197Z,1.70
2018-04-28T08:28:28.315Z,1.67
2018-04-28T08:30:57.184Z,1.52
2018-04-28T08:33:25.390Z,1.85
2018-04-28T08:35:53.512Z,1.65
2018-04-28T08:38:21.631Z,1.73
2018-04-28T08:40:50.519Z,1.70
2018-04-28T08:43:19.445Z,2.17
2018-04-28T08:45:47.577Z,2.22
2018-04-28T08:48:17.602Z,3.90
2018-04-28T08:50:45.730Z,2.62
2018-04-28T08:53:13.843Z,2.12
2018-04-28T08:55:42.001Z,1.92
2018-04-28T08:58:10.159Z,3.00
2018-04-28T09:00:49.131Z,1.45
2018-04-28T09:03:17.248Z,3.40
2018-04-28T09:05:45.385Z,1.70
2018-04-28T09:08:13.525Z,2.37
2018-04-28T09:10:41.643Z,1.62
2018-04-28T09:13:10.542Z,1.70
2018-04-28T09:15:38.654Z,2.47
2018-04-28T09:18:06.779Z,2.22
2018-04-28T09:20:34.894Z,2.03
2018-04-28T09:23:03.765Z,3.60
2018-04-28T09:25:31.901Z,3.30
2018-04-28T09:28:00.028Z,2.35
2018-04-28T09:30:28.156Z,3.55
2018-04-28T09:32:56.273Z,1.70
2018-04-28T09:35:24.408Z,0.98
2018-04-28T09:37:52.559Z,0.85
2018-04-28T09:40:21.445Z,1.15
2018-04-28T09:42:50.330Z,1.10
2018-04-28T09:45:18.472Z,0.80
2018-04-28T09:47:47.525Z,1.10
2018-04-28T09:50:15.645Z,1.20
2018-04-28T09:52:43.765Z,1.02
2018-04-28T09:55:11.894Z,0.77
2018-04-28T09:57:40.031Z,0.90
2018-04-28T10:00:26.756Z,0.82
2018-04-28T10:02:54.877Z,1.00
2018-04-28T10:05:22.982Z,0.77
2018-04-28T10:07:51.865Z,1.00
2018-04-28T10:10:20.739Z,0.98
2018-04-28T10:12:50.534Z,1.30
2018-04-28T10:15:18.558Z,0.90
2018-04-28T10:17:47.433Z,0.93
2018-04-28T10:20:15.616Z,1.10
2018-04-28T10:22:43.804Z,1.70
2018-04-28T10:25:12.740Z,1.00
2018-04-28T10:27:40.850Z,0.98
2018-04-28T10:30:08.966Z,1.20
2018-04-28T10:32:37.838Z,0.88
2018-04-28T10:35:05.947Z,0.80
2018-04-28T10:37:34.078Z,1.37
2018-04-28T10:40:02.193Z,1.95
2018-04-28T10:42:31.081Z,1.12
2018-04-28T10:44:59.986Z,1.08
2018-04-28T10:47:28.903Z,1.02
2018-04-28T10:49:57.034Z,1.10
2018-04-28T10:52:25.133Z,1.05
2018-04-28T10:54:54.035Z,1.00
2018-04-28T10:57:22.453Z,1.12
2018-04-28T10:59:50.547Z,0.90
2018-04-28T11:02:19.447Z,0.98
2018-04-28T11:04:47.565Z,1.40
2018-04-28T11:07:15.694Z,1.40
2018-04-28T11:09:43.807Z,1.67
2018-04-28T11:12:12.688Z,1.48
2018-04-28T11:14:40.817Z,1.58
2018-04-28T11:17:08.946Z,1.10
2018-04-28T11:19:37.109Z,1.48
2018-04-28T11:22:05.171Z,1.30
2018-04-28T11:24:34.061Z,1.15
2018-04-28T11:27:02.193Z,1.30
2018-04-28T11:29:31.088Z,1.20
2018-04-28T11:31:59.961Z,1.30
2018-04-28T11:34:28.082Z,1.33
2018-04-28T11:36:56.183Z,1.50
2018-04-28T11:39:25.067Z,1.10
2018-04-28T11:41:53.199Z,1.05
2018-04-28T11:44:22.125Z,1.15
2018-04-28T11:46:50.257Z,1.17
2018-04-28T11:49:18.362Z,1.10
2018-04-28T11:51:47.234Z,1.17
2018-04-28T11:54:15.353Z,1.02
2018-04-28T11:56:43.478Z,1.30
2018-04-28T11:59:11.648Z,1.10
2018-04-28T12:01:39.713Z,1.20
2018-04-28T12:04:07.836Z,1.10
2018-04-28T12:06:36.751Z,1.20
2018-04-28T12:09:05.756Z,0.95
2018-04-28T12:11:33.886Z,1.15
2018-04-28T12:14:02.782Z,1.50
2018-04-28T12:16:31.670Z,1.30
2018-04-28T12:18:59.814Z,1.20
2018-04-28T12:21:28.002Z,1.17
2018-04-28T12:23:56.817Z,1.60
2018-04-28T12:26:24.930Z,1.35
2018-04-28T12:28:53.121Z,1.20
2018-04-28T12:31:21.231Z,0.88
2018-04-28T12:33:49.370Z,1.60
2018-04-28T12:36:17.486Z,1.37
2018-04-28T12:38:45.596Z,1.50
2018-04-28T12:41:13.725Z,1.50
2018-04-28T12:43:41.837Z,1.65
2018-04-28T12:46:09.965Z,1.15
2018-04-28T12:48:38.087Z,1.30
2018-04-28T12:51:06.223Z,2.05
2018-04-28T12:53:34.330Z,1.33
2018-04-28T12:56:02.449Z,1.10
2018-04-28T12:58:31.345Z,1.02
2018-04-28T13:01:00.216Z,1.00
2018-04-28T13:03:28.365Z,2.08
2018-04-28T13:05:56.471Z,1.60
2018-04-28T13:08:24.588Z,1.30
2018-04-28T13:10:52.756Z,1.35
2018-04-28T13:13:20.889Z,1.10
2018-04-28T13:15:50.507Z,1.33
2018-04-28T13:18:18.613Z,2.83
2018-04-28T13:20:47.600Z,1.90
2018-04-28T13:23:16.472Z,2.30
2018-04-28T13:25:44.601Z,1.48
2018-04-28T13:28:12.712Z,1.60
2018-04-28T13:30:40.828Z,1.48
2018-04-28T13:33:09.711Z,1.52
2018-04-28T13:35:37.944Z,1.20
2018-04-28T13:38:06.056Z,1.12
2018-04-28T13:40:34.152Z,1.33
2018-04-28T13:43:03.139Z,1.37
2018-04-28T13:45:31.268Z,0.90
2018-04-28T13:47:59.394Z,1.35
2018-04-28T13:50:27.496Z,1.20
2018-04-28T13:52:56.458Z,1.30
2018-04-28T13:55:24.512Z,1.00
2018-04-28T13:57:52.629Z,1.20
2018-04-28T14:00:21.522Z,1.27
2018-04-28T14:02:49.628Z,1.85
2018-04-28T14:05:17.764Z,1.45
2018-04-28T14:07:45.873Z,1.60
2018-04-28T14:10:14.761Z,1.62
2018-04-28T14:12:43.627Z,1.60
2018-04-28T14:15:11.737Z,1.75
2018-04-28T14:17:40.643Z,1.48
2018-04-28T14:20:08.813Z,1.23
2018-04-28T14:22:37.007Z,0.98
2018-04-28T14:25:05.136Z,1.05
2018-04-28T14:27:33.253Z,1.62
2018-04-28T14:30:01.358Z,1.87
2018-04-28T14:32:29.481Z,1.87
2018-04-28T14:34:57.588Z,3.83
2018-04-28T14:37:25.689Z,1.70
2018-04-28T14:39:53.807Z,2.03
2018-04-28T14:42:22.651Z,2.65
2018-04-28T14:44:50.790Z,3.72
2018-04-28T14:47:19.683Z,2.00
2018-04-28T14:49:48.571Z,4.05
2018-04-28T14:52:16.746Z,2.62
2018-04-28T14:54:44.820Z,2.12
2018-04-28T14:57:12.924Z,1.65
2018-04-28T14:59:41.027Z,1.48
2018-04-28T15:02:09.146Z,1.20
2018-04-28T15:04:37.253Z,1.80
2018-04-28T15:07:06.133Z,1.70
2018-04-28T15:09:35.094Z,2.85
2018-04-28T15:12:03.921Z,1.37
2018-04-28T15:14:32.851Z,1.17
2018-04-28T15:17:00.963Z,1.40
2018-04-28T15:19:29.088Z,1.25
2018-04-28T15:21:57.983Z,1.20
2018-04-28T15:24:26.895Z,1.30
2018-04-28T15:26:55.002Z,1.15
2018-04-28T15:29:23.122Z,0.90
2018-04-28T15:31:51.992Z,1.05
2018-04-28T15:34:20.111Z,1.02
2018-04-28T15:36:48.232Z,1.37
2018-04-28T15:39:16.423Z,1.48
2018-04-28T15:41:44.482Z,1.20
2018-04-28T15:44:12.637Z,1.50
2018-04-28T15:46:40.746Z,1.33
2018-04-28T15:49:08.864Z,0.88
2018-04-28T15:51:37.748Z,1.52
2018-04-28T15:54:06.629Z,1.42
2018-04-28T15:56:34.767Z,1.02
2018-04-28T15:59:02.866Z,1.73
2018-04-28T16:01:31.896Z,1.15
2018-04-28T16:04:00.001Z,1.45
2018-04-28T16:06:28.106Z,1.60
2018-04-28T16:08:56.221Z,1.48
2018-04-28T16:11:25.101Z,1.25
2018-04-28T16:13:53.263Z,1.50
2018-04-28T16:16:21.365Z,1.25
2018-04-28T16:18:49.488Z,1.73
2018-04-28T16:21:17.594Z,1.90
2018-04-28T16:23:45.728Z,1.65
2018-04-28T16:26:13.836Z,1.50
2018-04-28T16:28:41.981Z,1.62
2018-04-28T16:31:10.106Z,1.50
2018-04-28T16:33:38.250Z,1.30
2018-04-28T16:36:06.368Z,1.37
2018-04-28T16:38:34.481Z,1.40
2018-04-28T16:41:03.368Z,1.30
2018-04-28T16:43:32.294Z,1.37
2018-04-28T16:46:00.417Z,1.10
2018-04-28T16:48:28.536Z,1.12
2018-04-28T16:50:56.756Z,1.20
2018-04-28T16:53:24.862Z,1.15
2018-04-28T16:55:52.968Z,1.17
2018-04-28T16:58:21.083Z,1.30
2018-04-28T17:00:49.193Z,1.30
2018-04-28T17:03:17.323Z,1.58
2018-04-28T17:05:45.424Z,1.48
2018-04-28T17:08:13.557Z,1.42
2018-04-28T17:10:41.664Z,1.30
2018-04-28T17:13:09.813Z,1.08
2018-04-28T17:15:37.923Z,1.50
2018-04-28T17:18:06.085Z,1.85
2018-04-28T17:20:34.220Z,1.58
2018-04-28T17:23:03.105Z,1.20
2018-04-28T17:25:31.213Z,1.70
2018-04-28T17:27:59.401Z,1.62
2018-04-28T17:30:27.519Z,1.58
2018-04-28T17:32:55.655Z,1.48
2018-04-28T17:35:23.770Z,1.50
2018-04-28T17:37:51.900Z,3.37
2018-04-28T17:40:20.045Z,3.47
2018-04-28T17:42:49.014Z,3.28
2018-04-28T17:45:17.835Z,2.30
2018-04-28T17:47:45.962Z,1.75
2018-04-28T17:50:14.063Z,2.33
2018-04-28T17:52:42.962Z,3.22
2018-04-28T17:55:11.076Z,2.33
2018-04-28T17:57:39.954Z,3.10
2018-04-28T18:00:08.089Z,2.10
2018-04-28T18:02:36.318Z,1.73
2018-04-28T18:05:04.371Z,1.60
2018-04-28T18:07:32.473Z,1.67
2018-04-28T18:10:00.625Z,1.60
2018-04-28T18:12:28.737Z,1.67
2018-04-28T18:14:57.639Z,1.55
2018-04-28T18:17:26.518Z,1.50
2018-04-28T18:19:54.646Z,1.27
2018-04-28T18:22:22.787Z,1.30
2018-04-28T18:24:51.657Z,1.33
2018-04-28T18:27:19.820Z,1.35
2018-04-28T18:29:47.968Z,1.70
2018-04-28T18:32:16.141Z,1.75
2018-04-28T18:34:44.263Z,2.15
2018-04-28T18:37:12.374Z,2.25
2018-04-28T18:39:41.285Z,1.70
2018-04-28T18:42:09.395Z,1.92
2018-04-28T18:44:37.531Z,1.98
2018-04-28T18:47:05.653Z,1.92
2018-04-28T18:49:33.771Z,2.28
2018-04-28T18:52:02.653Z,2.05
2018-04-28T18:54:30.761Z,2.60
2018-04-28T18:56:58.871Z,3.00
2018-04-28T18:59:26.992Z,2.87
2018-04-28T19:01:55.878Z,2.53
2018-04-28T19:04:24.016Z,2.58
2018-04-28T19:06:52.128Z,2.53
2018-04-28T19:09:20.717Z,2.28
2018-04-28T19:11:48.927Z,2.10
2018-04-28T19:14:17.104Z,2.95
2018-04-28T19:16:45.993Z,3.25
2018-04-28T19:19:14.871Z,3.40
2018-04-28T19:21:42.988Z,2.70
2018-04-28T19:24:11.107Z,2.65
2018-04-28T19:26:39.237Z,2.47
2018-04-28T19:29:07.354Z,2.15
2018-04-28T19:31:35.473Z,2.37
2018-04-28T19:34:03.596Z,2.17
2018-04-28T19:36:31.724Z,2.37
2018-04-28T19:39:00.610Z,2.80
2018-04-28T19:41:29.517Z,2.60
2018-04-28T19:43:58.403Z,2.40
2018-04-28T19:46:27.307Z,2.53
2018-04-28T19:48:56.183Z,2.90
2018-04-28T19:51:25.092Z,3.10
2018-04-28T19:53:53.993Z,2.80
2018-04-28T19:56:22.886Z,2.87
2018-04-28T19:58:51.763Z,3.25
2018-04-28T20:01:19.882Z,4.15
2018-04-28T20:03:47.997Z,3.90
2018-04-28T20:06:16.128Z,4.45
2018-04-28T20:08:44.247Z,5.15
2018-04-28T20:11:12.418Z,4.60
2018-04-28T20:13:40.549Z,8.57
2018-04-28T20:16:09.423Z,8.27
2018-04-28T20:18:37.525Z,6.78
2018-04-28T20:21:05.652Z,6.28
2018-04-28T20:23:51.668Z,6.60
2018-04-28T20:26:20.558Z,6.05
2018-04-28T20:28:49.464Z,6.10
2018-04-28T20:31:18.343Z,5.70
2018-04-28T20:33:46.477Z,5.93
2018-04-28T20:36:14.601Z,5.10
2018-04-28T20:38:42.818Z,5.22
2018-04-28T20:41:10.949Z,4.32
2018-04-28T20:43:39.062Z,3.85
2018-04-28T20:46:07.172Z,4.47
2018-04-28T20:48:35.287Z,4.47
2018-04-28T20:51:03.395Z,4.15
2018-04-28T20:53:31.548Z,4.40
2018-04-28T20:56:00.427Z,4.10
2018-04-28T20:58:28.659Z,3.95
2018-04-28T21:00:56.777Z,4.75
2018-04-28T21:03:24.883Z,4.53
2018-04-28T21:05:53.778Z,4.35
2018-04-28T21:08:22.634Z,3.83
2018-04-28T21:10:50.739Z,4.70
2018-04-28T21:13:19.643Z,3.40
2018-04-28T21:15:48.514Z,3.75
2018-04-28T21:18:16.646Z,3.60
2018-04-28T21:20:44.763Z,3.85
2018-04-28T21:23:12.865Z,5.47
2018-04-28T21:25:41.756Z,6.43
2018-04-28T21:28:09.858Z,6.25
2018-04-28T21:30:37.983Z,7.35
2018-04-28T21:33:06.088Z,5.72
2018-04-28T21:35:34.979Z,7.22
2018-04-28T21:38:03.097Z,7.72
2018-04-28T21:40:31.232Z,7.28
2018-04-28T21:42:59.346Z,7.75
2018-04-28T21:45:27.487Z,7.47
2018-04-28T21:47:55.607Z,7.68
2018-04-28T21:50:23.733Z,8.73
2018-04-28T21:52:51.863Z,8.32
2018-04-28T21:55:19.968Z,8.32
2018-04-28T21:57:48.105Z,7.93
2018-04-28T22:00:16.209Z,8.27
2018-04-28T22:02:44.315Z,8.38
2018-04-28T22:05:12.434Z,8.30
2018-04-28T22:07:40.632Z,7.28
2018-04-28T22:10:08.783Z,7.05
2018-04-28T22:12:37.684Z,6.72
2018-04-28T22:15:05.807Z,5.82
2018-04-28T22:17:34.696Z,5.50
2018-04-28T22:20:02.836Z,5.32
2018-04-28T22:22:30.941Z,4.30
2018-04-28T22:24:59.073Z,4.35
2018-04-28T22:27:27.966Z,4.50
2018-04-28T22:29:56.889Z,4.40
2018-04-28T22:32:25.006Z,4.35
2018-04-28T22:34:53.141Z,4.50
2018-04-28T22:37:21.252Z,5.60
2018-04-28T22:39:49.363Z,6.15
2018-04-28T22:42:17.499Z,6.45
2018-04-28T22:44:45.600Z,5.30
2018-04-28T22:47:13.710Z,6.57
2018-04-28T22:49:42.591Z,5.45
2018-04-28T22:52:11.471Z,4.70
2018-04-28T22:54:39.593Z,4.78
2018-04-28T22:57:07.696Z,4.57
2018-04-28T22:59:35.839Z,5.00
2018-04-28T23:02:03.956Z,4.57
2018-04-28T23:04:32.060Z,5.10
2018-04-28T23:07:00.199Z,4.78
2018-04-28T23:09:28.325Z,5.72
2018-04-28T23:11:56.465Z,5.30
2018-04-28T23:14:24.576Z,5.75
2018-04-28T23:16:52.701Z,6.50
2018-04-28T23:19:20.813Z,6.28
2018-04-28T23:21:48.942Z,6.07
2018-04-28T23:24:17.050Z,6.05
2018-04-28T23:26:45.932Z,6.32
2018-04-28T23:29:14.052Z,6.00
2018-04-28T23:31:42.189Z,5.30
2018-04-28T23:34:10.313Z,5.62
2018-04-28T23:36:39.200Z,6.28
2018-04-28T23:39:07.325Z,5.53
2018-04-28T23:41:35.433Z,5.75
2018-04-28T23:44:04.391Z,6.32
2018-04-28T23:46:32.489Z,5.70
2018-04-28T23:49:00.603Z,6.12
2018-04-28T23:51:28.724Z,6.25
2018-04-28T23:53:56.838Z,6.37
2018-04-28T23:56:24.971Z,6.97
2018-04-28T23:58:53.082Z,6.07
